Time;durP1;ratioP1;P1;durP2;ratioP2;P2;SDS_P1;SDS_P2;PMS_P1;PMS_P2;Temp;Humidity;BMP_temperature;BMP_pressure;BME280_temperature;BME280_humidity;BME280_pressure;Samples;Min_cycle;Max_cycle;Signal;HPM_P1;HPM_P2
2021/11/16 00:01:26;;;;;;;54.50;23.13;;;;;;;-142.75;100.00;78744.09;5010795;28;20092;-66
2021/11/16 00:03:55;;;;;;;51.63;22.80;;;;;;;-142.75;100.00;78736.19;4993647;28;20113;-66
2021/11/16 00:06:23;;;;;;;54.70;24.50;;;;;;;-142.75;100.00;78740.13;5011990;28;20080;-66
2021/11/16 00:08:49;;;;;;;50.97;22.70;;;;;;;-142.75;100.00;78748.03;5011539;28;20021;-67
2021/11/16 00:11:15;;;;;;;58.00;23.25;;;;;;;-142.75;100.00;78738.16;5011026;28;20144;-66
2021/11/16 00:13:40;;;;;;;;;;;;;;;-142.75;100.00;78744.09;5011966;28;20488;-66
2021/11/16 00:16:06;;;;;;;55.87;24.43;;;;;;;-142.75;100.00;78751.97;5011181;28;19977;-66
2021/11/16 00:18:32;;;;;;;54.00;23.95;;;;;;;-142.75;100.00;78757.88;4993692;28;20022;-66
2021/11/16 00:20:59;;;;;;;55.80;24.17;;;;;;;-142.75;100.00;78746.03;4992963;28;20065;-66
2021/11/16 00:23:32;;;;;;;49.40;21.67;;;;;;;-142.75;100.00;78757.88;5010991;28;20036;-66
2021/11/16 00:25:58;;;;;;;60.10;25.47;;;;;;;-142.75;100.00;78763.78;5019473;28;20075;-66
2021/11/16 00:28:24;;;;;;;59.67;24.60;;;;;;;-142.75;100.00;78769.69;5030870;28;20025;-67
2021/11/16 00:30:50;;;;;;;64.13;26.73;;;;;;;-142.75;100.00;78769.69;5029934;28;20026;-66
2021/11/16 00:33:16;;;;;;;64.00;26.88;;;;;;;-142.75;100.00;78787.41;5030875;28;20041;-66
2021/11/16 00:35:42;;;;;;;61.40;26.20;;;;;;;-142.75;100.00;78779.53;5031208;28;20021;-66
2021/11/16 00:38:10;;;;;;;62.17;27.33;;;;;;;-142.75;100.00;78765.75;5030661;28;20025;-66
2021/11/16 00:40:38;;;;;;;63.83;27.17;;;;;;;-142.75;100.00;78771.66;5028731;28;20025;-67
2021/11/16 00:43:07;;;;;;;62.23;27.20;;;;;;;-142.75;100.00;78763.78;5030629;28;20404;-66
2021/11/16 00:45:33;;;;;;;63.13;25.87;;;;;;;-142.75;100.00;78757.88;5010791;28;20029;-66
2021/11/16 00:47:58;;;;;;;60.63;26.55;;;;;;;-142.75;100.00;78753.94;5010737;28;20060;-66
2021/11/16 00:50:23;;;;;;;65.93;27.38;;;;;;;-142.75;100.00;78742.09;5009962;28;20044;-66
2021/11/16 00:52:49;;;;;;;63.92;27.58;;;;;;;-142.75;100.00;78732.25;5010449;28;20396;-66
2021/11/16 00:55:16;;;;;;;65.00;27.35;;;;;;;-142.75;100.00;78736.19;5011064;28;20057;-66
2021/11/16 00:57:42;;;;;;;64.27;27.43;;;;;;;-142.75;100.00;78718.47;5010969;28;20022;-66
2021/11/16 01:00:10;;;;;;;68.65;27.85;;;;;;;-142.75;100.00;78728.31;5009586;28;20020;-66
2021/11/16 01:02:36;;;;;;;73.07;28.03;;;;;;;-142.75;100.00;78744.09;5009784;28;20064;-66
2021/11/16 01:05:01;;;;;;;61.85;28.48;;;;;;;-142.75;100.00;78722.41;5010736;28;20452;-66
2021/11/16 01:07:26;;;;;;;69.57;28.95;;;;;;;-142.75;100.00;78720.44;5010617;28;20075;-66
2021/11/16 01:09:51;;;;;;;67.97;26.65;;;;;;;-142.75;100.00;78724.38;5009579;28;20105;-65
2021/11/16 01:12:17;;;;;;;63.45;27.90;;;;;;;-142.75;100.00;78734.22;5010647;28;20041;-66
2021/11/16 01:14:44;;;;;;;67.72;29.20;;;;;;;-142.75;100.00;78732.25;5010307;28;20415;-68
2021/11/16 01:17:09;;;;;;;68.60;28.43;;;;;;;-142.75;100.00;78740.13;5009120;28;20030;-67
2021/11/16 01:19:34;;;;;;;69.18;29.50;;;;;;;-142.75;100.00;78742.09;5010320;28;20026;-67
2021/11/16 01:22:00;;;;;;;72.30;27.30;;;;;;;-142.75;100.00;78736.19;4991922;28;20022;-67
2021/11/16 01:24:26;;;;;;;63.15;28.00;;;;;;;-142.75;100.00;78728.31;5009803;28;20025;-67
2021/11/16 01:26:52;;;;;;;70.20;28.83;;;;;;;-142.75;100.00;78751.97;5010021;28;20029;-67
2021/11/16 01:29:19;;;;;;;63.17;28.60;;;;;;;-142.75;100.00;78734.22;5010409;28;20156;-66
2021/11/16 01:31:45;;;;;;;67.67;27.77;;;;;;;-142.75;100.00;78736.19;5009240;28;20578;-67
2021/11/16 01:34:11;;;;;;;63.53;28.05;;;;;;;-142.75;100.00;78732.25;4992240;28;20117;-67
2021/11/16 01:36:37;;;;;;;61.30;27.93;;;;;;;-142.75;100.00;78726.34;5010278;28;20017;-66
2021/11/16 01:39:04;;;;;;;67.00;27.25;;;;;;;-142.75;100.00;78720.44;4990495;28;20781;-67
2021/11/16 01:41:31;;;;;;;63.37;27.33;;;;;;;-142.75;100.00;78724.38;5009013;28;20388;-67
2021/11/16 01:43:58;;;;;;;64.07;28.77;;;;;;;-142.75;100.00;78712.56;5009617;28;20056;-67
2021/11/16 01:46:24;;;;;;;65.40;28.83;;;;;;;-142.75;100.00;78708.63;5009609;28;20091;-67
2021/11/16 01:48:55;;;;;;;63.95;28.52;;;;;;;-142.75;100.00;78724.38;5009464;28;20030;-67
2021/11/16 01:51:25;;;;;;;67.37;27.53;;;;;;;-142.75;100.00;78730.28;5008857;28;20026;-66
2021/11/16 01:53:56;;;;;;;64.67;28.87;;;;;;;-142.75;100.00;78728.31;5009252;28;20483;-67
2021/11/16 01:56:21;;;;;;;66.97;29.27;;;;;;;-142.75;100.00;78728.31;4991887;28;20072;-67
2021/11/16 01:58:47;;;;;;;71.57;30.33;;;;;;;-142.75;100.00;78734.22;5008568;28;20097;-67
2021/11/16 02:01:12;;;;;;;63.97;29.15;;;;;;;-142.75;100.00;78720.44;5008559;28;20116;-67
2021/11/16 02:03:38;;;;;;;68.43;28.88;;;;;;;-142.75;100.00;78728.31;5009199;28;20025;-66
2021/11/16 02:06:23;;;;;;;66.40;28.50;;;;;;;-142.75;100.00;78716.50;5009663;28;20030;-66
2021/11/16 02:08:51;;;;;;;67.60;28.57;;;;;;;-142.75;100.00;78728.31;5009304;28;20026;-67
2021/11/16 02:11:17;;;;;;;66.33;29.33;;;;;;;-142.75;100.00;78716.50;5008717;28;20384;-67
2021/11/16 02:13:43;;;;;;;64.10;30.30;;;;;;;-142.75;100.00;78736.19;5007851;28;20030;-66
2021/11/16 02:16:08;;;;;;;67.63;30.15;;;;;;;-142.75;100.00;78716.50;5009216;28;20112;-66
2021/11/16 02:18:35;;;;;;;67.85;28.95;;;;;;;-142.75;100.00;78712.56;5009166;28;20391;-67
2021/11/16 02:21:00;;;;;;;66.43;28.40;;;;;;;-142.75;100.00;78716.50;5008386;28;20044;-66
2021/11/16 02:23:26;;;;;;;64.32;28.85;;;;;;;-142.75;100.00;78726.34;5009203;28;20109;-67
2021/11/16 02:25:51;;;;;;;64.10;28.98;;;;;;;-142.75;100.00;78720.44;5026412;28;20029;-67
2021/11/16 02:28:19;;;;;;;64.45;29.13;;;;;;;-142.75;100.00;78704.69;5016956;28;20030;-67
2021/11/16 02:30:45;;;;;;;66.37;28.87;;;;;;;-142.75;100.00;78712.56;5008995;28;20040;-67
2021/11/16 02:33:12;;;;;;;65.17;29.00;;;;;;;-142.75;100.00;78692.88;5009098;28;20021;-67
2021/11/16 02:35:38;;;;;;;64.83;29.33;;;;;;;-142.75;100.00;78708.63;5009699;28;20029;-67
2021/11/16 02:38:03;;;;;;;69.45;29.10;;;;;;;-142.75;100.00;78702.72;5008847;28;20112;-67
2021/11/16 02:40:29;;;;;;;65.88;29.70;;;;;;;-142.75;100.00;78696.81;5007006;28;20411;-67
2021/11/16 02:42:55;;;;;;;66.30;28.80;;;;;;;-142.75;100.00;78685.00;5008689;28;20393;-67
2021/11/16 02:45:21;;;;;;;69.93;29.08;;;;;;;-142.75;100.00;78702.72;5008750;28;20041;-67
2021/11/16 02:47:47;;;;;;;67.73;27.67;;;;;;;-142.75;100.00;78696.81;5009037;28;20021;-67
2021/11/16 02:50:14;;;;;;;62.03;26.30;;;;;;;-142.75;100.00;78700.75;5007734;28;20030;-67
2021/11/16 02:52:39;;;;;;;59.10;25.53;;;;;;;-142.75;100.00;78702.72;5008586;28;20777;-67
2021/11/16 02:55:07;;;;;;;67.65;29.05;;;;;;;-142.75;100.00;78702.72;5008385;28;20025;-67
2021/11/16 02:57:32;;;;;;;59.03;26.37;;;;;;;-142.75;100.00;78716.50;5008293;28;20037;-67
2021/11/16 02:59:58;;;;;;;60.40;27.40;;;;;;;-142.75;100.00;78730.28;5007759;28;20588;-67
2021/11/16 03:02:23;;;;;;;63.80;27.10;;;;;;;-142.75;100.00;78736.19;4990846;28;20048;-66
2021/11/16 03:04:50;;;;;;;61.28;27.67;;;;;;;-142.75;100.00;78748.03;5008333;28;20026;-67
2021/11/16 03:07:34;;;;;;;63.07;27.23;;;;;;;-142.75;100.00;78750.00;5009233;28;20030;-67
2021/11/16 03:09:59;;;;;;;64.87;28.13;;;;;;;-142.75;100.00;78759.84;5006389;28;20021;-67
2021/11/16 03:12:28;;;;;;;58.85;27.35;;;;;;;-142.75;100.00;78753.94;5008279;28;20399;-67
2021/11/16 03:14:53;;;;;;;68.77;29.33;;;;;;;-142.75;100.00;78761.81;5008064;28;20036;-67
2021/11/16 03:17:19;;;;;;;61.95;27.05;;;;;;;-142.75;100.00;78753.94;5008592;28;20026;-67
2021/11/16 03:19:44;;;;;;;59.13;26.67;;;;;;;-142.75;100.00;78730.28;5007782;28;20068;-67
2021/11/16 03:22:10;;;;;;;58.08;26.60;;;;;;;-142.75;100.00;78720.44;5012192;28;20104;-67
2021/11/16 03:24:36;;;;;;;59.30;26.90;;;;;;;-142.75;100.00;78712.56;5029068;28;20017;-67
2021/11/16 03:27:08;;;;;;;63.95;27.48;;;;;;;-142.75;100.00;78708.63;5014209;28;20079;-66
2021/11/16 03:29:34;;;;;;;61.13;26.70;;;;;;;-142.75;100.00;78706.66;5031835;28;20021;-67
2021/11/16 03:32:09;;;;;;;59.80;27.00;;;;;;;-142.75;100.00;78710.59;5013372;28;20033;-67
2021/11/16 03:34:34;;;;;;;60.67;26.63;;;;;;;-142.75;100.00;78726.34;5031619;28;20091;-67
2021/11/16 03:37:02;;;;;;;57.50;25.67;;;;;;;-142.75;100.00;78716.50;5032506;28;20029;-67
2021/11/16 03:39:27;;;;;;;50.90;23.83;;;;;;;-142.75;100.00;78708.63;5030004;28;20052;-67
2021/11/16 03:41:53;;;;;;;60.80;27.92;;;;;;;-142.75;100.00;78716.50;5030975;28;20586;-67
2021/11/16 03:44:19;;;;;;;55.57;25.90;;;;;;;-142.75;100.00;78712.56;5031733;28;20025;-67
2021/11/16 03:46:45;;;;;;;61.40;26.88;;;;;;;-142.75;100.00;78724.38;5014049;28;20017;-67
2021/11/16 03:49:12;;;;;;;56.85;26.35;;;;;;;-142.75;100.00;78706.66;5031502;28;20053;-67
2021/11/16 03:51:40;;;;;;;66.73;27.33;;;;;;;-142.75;100.00;78712.56;5030735;28;20036;-67
2021/11/16 03:54:06;;;;;;;57.40;26.90;;;;;;;-142.75;100.00;78712.56;5031338;28;20390;-67
2021/11/16 03:56:31;;;;;;;54.50;25.42;;;;;;;-142.75;100.00;78728.31;5031175;28;20108;-67
2021/11/16 03:58:56;;;;;;;62.93;27.53;;;;;;;-142.75;100.00;78738.16;5031448;28;20024;-67
2021/11/16 04:01:23;;;;;;;60.88;27.42;;;;;;;-142.75;100.00;78732.25;5030482;28;20322;-67
2021/11/16 04:03:49;;;;;;;61.50;27.50;;;;;;;-142.75;100.00;78722.41;5031041;28;20045;-67
2021/11/16 04:06:16;;;;;;;58.92;26.67;;;;;;;-142.75;100.00;78716.50;5011400;28;20108;-67
2021/11/16 04:08:41;;;;;;;58.87;26.13;;;;;;;-142.75;100.00;78718.47;5011461;28;20113;-67
2021/11/16 04:11:06;;;;;;;60.42;25.95;;;;;;;-142.75;100.00;78716.50;5010787;28;20033;-67
2021/11/16 04:13:32;;;;;;;60.55;26.40;;;;;;;-142.75;100.00;78714.53;5011317;28;20025;-67
2021/11/16 04:15:58;;;;;;;58.17;25.38;;;;;;;-142.75;100.00;78714.53;4993696;28;20029;-67
2021/11/16 04:18:23;;;;;;;59.50;26.85;;;;;;;-142.75;100.00;78710.59;5018097;28;20036;-67
2021/11/16 04:20:53;;;;;;;59.08;26.15;;;;;;;-142.75;100.00;78720.44;5030027;28;20096;-67
2021/11/16 04:23:19;;;;;;;58.87;26.33;;;;;;;-142.75;100.00;78716.50;5031167;28;20039;-67
2021/11/16 04:25:45;;;;;;;56.35;25.38;;;;;;;-142.75;100.00;78708.63;5013006;28;20104;-68
2021/11/16 04:28:12;;;;;;;64.90;26.80;;;;;;;-142.75;100.00;78716.50;5009944;28;20026;-67
2021/11/16 04:30:39;;;;;;;62.23;27.87;;;;;;;-142.75;100.00;78724.38;5010127;28;20025;-67
2021/11/16 04:33:05;;;;;;;68.60;30.30;;;;;;;-142.75;100.00;78726.34;4992905;28;20045;-67
2021/11/16 04:35:30;;;;;;;;;;;;;;;-142.75;100.00;78736.19;5011223;28;20510;-67
2021/11/16 04:37:58;;;;;;;66.10;27.67;;;;;;;-142.75;100.00;78732.25;5010909;28;19949;-67
2021/11/16 04:40:31;;;;;;;68.23;29.27;;;;;;;-142.75;100.00;78720.44;5009152;28;20452;-67
2021/11/16 04:42:58;;;;;;;62.07;28.33;;;;;;;-142.75;100.00;78732.25;5010874;28;20049;-67
2021/11/16 04:45:24;;;;;;;60.07;26.30;;;;;;;-142.75;100.00;78736.19;5010879;28;20069;-67
2021/11/16 04:47:56;;;;;;;59.03;27.92;;;;;;;-142.75;100.00;78722.41;5010711;28;20026;-67
2021/11/16 04:50:38;;;;;;;66.33;29.23;;;;;;;-142.75;100.00;78708.63;5010054;28;20026;-67
2021/11/16 04:55:53;;;;;;;60.37;29.10;;;;;;;-142.75;100.00;78710.59;5030283;28;20033;-67
2021/11/16 05:03:54;;;;;;;72.40;29.63;;;;;;;-142.75;100.00;78755.91;5026683;22;22174;-69
2021/11/16 05:06:20;;;;;;;62.90;27.33;;;;;;;-142.75;100.00;78738.16;5011092;28;20033;-68
2021/11/16 05:08:47;;;;;;;66.65;30.63;;;;;;;-142.75;100.00;78728.31;4992876;28;20026;-69
2021/11/16 05:11:14;;;;;;;68.30;31.20;;;;;;;-142.75;100.00;78728.31;5009538;28;20138;-69
2021/11/16 05:13:43;;;;;;;71.07;29.27;;;;;;;-142.75;100.00;78722.41;5010021;28;20033;-69
2021/11/16 05:16:10;;;;;;;67.27;29.73;;;;;;;-142.75;100.00;78720.44;5010101;28;20049;-69
2021/11/16 05:18:36;;;;;;;71.27;30.13;;;;;;;-142.75;100.00;78712.56;5009558;28;20045;-69
2021/11/16 05:21:01;;;;;;;67.82;29.63;;;;;;;-142.75;100.00;78714.53;5007034;28;20037;-69
2021/11/16 05:23:27;;;;;;;70.05;29.33;;;;;;;-142.75;100.00;78704.69;5009306;28;20018;-69
2021/11/16 05:25:53;;;;;;;70.57;31.05;;;;;;;-142.75;100.00;78700.75;5009501;28;20025;-69
2021/11/16 05:28:21;;;;;;;67.20;28.27;;;;;;;-142.75;100.00;78690.91;5003032;28;20037;-69
2021/11/16 05:30:47;;;;;;;67.57;28.37;;;;;;;-142.75;100.00;78704.69;5007341;28;20125;-69
2021/11/16 05:33:13;;;;;;;72.50;29.48;;;;;;;-142.75;100.00;78700.75;5007774;28;20113;-69
2021/11/16 05:35:38;;;;;;;;;;;;;;;-142.75;100.00;78696.81;5008500;28;20029;-69
2021/11/16 05:38:04;;;;;;;65.67;29.47;;;;;;;-142.75;100.00;78688.94;4992062;28;20350;-69
2021/11/16 05:40:29;;;;;;;68.18;28.27;;;;;;;-142.75;100.00;78690.91;4999759;28;20034;-69
2021/11/16 05:42:55;;;;;;;69.93;30.25;;;;;;;-142.75;100.00;78683.03;5007865;28;20129;-69
2021/11/16 05:45:21;;;;;;;;;;;;;;;-142.75;100.00;78696.81;5008822;28;20025;-68
2021/11/16 05:47:46;;;;;;;66.33;28.40;;;;;;;-142.75;100.00;78704.69;5010321;28;19967;-69
2021/11/16 05:50:13;;;;;;;63.10;29.27;;;;;;;-142.75;100.00;78716.50;4991677;28;20116;-69
2021/11/16 05:52:40;;;;;;;71.00;28.87;;;;;;;-142.75;100.00;78736.19;4990842;28;21068;-70
2021/11/16 05:55:08;;;;;;;;;;;;;;;-142.75;100.00;78724.38;5010456;28;20116;-69
2021/11/16 05:57:35;;;;;;;65.17;29.10;;;;;;;-142.75;100.00;78716.50;5009881;28;19921;-69
2021/11/16 06:00:00;;;;;;;62.37;27.33;;;;;;;-142.75;100.00;78708.63;5009156;28;20403;-69
2021/11/16 06:02:26;;;;;;;70.32;28.38;;;;;;;-142.75;100.00;78716.50;5008609;28;20498;-69
2021/11/16 06:04:51;;;;;;;62.20;27.90;;;;;;;-142.75;100.00;78702.72;5009618;28;20125;-69
2021/11/16 06:07:16;;;;;;;67.75;28.65;;;;;;;-142.75;100.00;78708.63;5010779;28;20030;-69
2021/11/16 06:09:43;;;;;;;61.93;26.87;;;;;;;-142.75;100.00;78720.44;5007456;28;20048;-69
2021/11/16 06:12:09;;;;;;;65.80;28.07;;;;;;;-142.75;100.00;78720.44;5010096;28;21135;-69
2021/11/16 06:14:35;;;;;;;59.50;25.70;;;;;;;-142.75;100.00;78708.63;4992139;28;20518;-69
2021/11/16 06:17:00;;;;;;;69.97;29.20;;;;;;;-142.75;100.00;78708.63;5017913;28;20025;-69
2021/11/16 06:19:29;;;;;;;63.88;28.15;;;;;;;-142.75;100.00;78700.75;5009490;28;20076;-69
2021/11/16 06:21:54;;;;;;;65.80;28.37;;;;;;;-142.75;100.00;78716.50;5008756;28;20025;-69
2021/11/16 06:24:20;;;;;;;71.97;29.48;;;;;;;-142.75;100.00;78700.75;5009460;28;20026;-68
2021/11/16 06:26:46;;;;;;;66.05;28.17;;;;;;;-142.75;100.00;78708.63;5009869;28;20030;-70
2021/11/16 06:29:11;;;;;;;68.47;29.88;;;;;;;-142.75;100.00;78716.50;4991651;28;20029;-69
2021/11/16 06:31:37;;;;;;;66.43;28.07;;;;;;;-142.75;100.00;78740.13;5008874;28;20045;-69
2021/11/16 06:34:04;;;;;;;67.28;28.98;;;;;;;-142.75;100.00;78714.53;4991474;28;20272;-69
2021/11/16 06:36:36;;;;;;;65.37;28.30;;;;;;;-142.75;100.00;78710.59;5009961;28;20037;-69
2021/11/16 06:39:06;;;;;;;67.30;28.97;;;;;;;-142.75;100.00;78685.00;5013564;28;20018;-69
2021/11/16 06:41:31;;;;;;;67.47;27.17;;;;;;;-142.75;100.00;78696.81;5013757;28;20426;-69
2021/11/16 06:43:57;;;;;;;68.68;29.08;;;;;;;-142.75;100.00;78681.06;5008717;28;20105;-69
2021/11/16 06:46:22;;;;;;;68.90;28.73;;;;;;;-142.75;100.00;78681.06;5016044;28;20785;-69
2021/11/16 06:48:48;;;;;;;67.43;29.33;;;;;;;-142.75;100.00;78677.13;5028679;28;20094;-69
2021/11/16 06:51:13;;;;;;;64.15;28.23;;;;;;;-142.75;100.00;78690.91;5028553;28;20029;-69
2021/11/16 06:53:39;;;;;;;69.85;29.20;;;;;;;-142.75;100.00;78685.00;5010861;28;20029;-69
2021/11/16 06:56:06;;;;;;;71.78;29.17;;;;;;;-142.75;100.00;78692.88;5009090;28;20053;-69
2021/11/16 06:58:34;;;;;;;67.93;28.63;;;;;;;-142.75;100.00;78698.78;5008794;28;20026;-69
2021/11/16 07:01:00;;;;;;;72.00;28.83;;;;;;;-142.75;100.00;78690.91;5005964;28;20499;-68
2021/11/16 07:03:26;;;;;;;68.68;27.92;;;;;;;-142.75;100.00;78698.78;5007791;28;20060;-69
2021/11/16 07:05:53;;;;;;;;;;;;;;;-142.75;100.00;78696.81;5009329;28;20476;-69
2021/11/16 07:08:35;;;;;;;66.57;27.52;;;;;;;-142.75;100.00;78710.59;5013622;28;19920;-69
2021/11/16 07:11:16;;;;;;;70.43;28.43;;;;;;;-142.75;100.00;78712.56;5027786;28;20021;-69
2021/11/16 07:14:02;;;;;;;67.93;29.53;;;;;;;-142.75;100.00;78702.72;5028494;28;20498;-69
2021/11/16 07:16:49;;;;;;;65.17;27.77;;;;;;;-142.75;100.00;78708.63;5010822;28;20033;-68
2021/11/16 07:19:14;;;;;;;66.38;28.95;;;;;;;-142.75;100.00;78712.56;5019972;28;20037;-69
2021/11/16 07:21:45;;;;;;;75.15;28.88;;;;;;;-142.75;100.00;78714.53;4990477;28;20117;-68
2021/11/16 07:24:14;;;;;;;68.47;29.47;;;;;;;-142.75;100.00;78716.50;5008673;28;20033;-68
2021/11/16 07:26:41;;;;;;;73.57;28.83;;;;;;;-142.75;100.00;78724.38;5000719;28;20403;-69
2021/11/16 07:29:14;;;;;;;67.13;28.63;;;;;;;-142.75;100.00;78730.28;5008684;28;20030;-69
2021/11/16 07:31:43;;;;;;;65.47;28.30;;;;;;;-142.75;100.00;78728.31;5007748;28;20029;-69
2021/11/16 07:34:20;;;;;;;72.23;29.73;;;;;;;-142.75;100.00;78732.25;5008641;28;20036;-68
2021/11/16 07:36:59;;;;;;;68.40;28.93;;;;;;;-142.75;100.00;78724.38;4991586;28;20029;-68
2021/11/16 07:39:27;;;;;;;76.80;29.40;;;;;;;-142.75;100.00;78700.75;4990498;28;20096;-69
2021/11/16 07:42:04;;;;;;;64.97;29.30;;;;;;;-142.75;100.00;78694.84;5009825;28;20068;-69
2021/11/16 07:44:29;;;;;;;69.57;28.40;;;;;;;-142.75;100.00;78700.75;5028128;28;20045;-68
2021/11/16 07:46:56;;;;;;;72.38;30.15;;;;;;;-142.75;100.00;78706.66;5028140;28;20065;-68
2021/11/16 07:49:23;;;;;;;67.57;29.43;;;;;;;-142.75;100.00;78718.47;5013513;28;20476;-69
2021/11/16 07:51:50;;;;;;;65.57;28.17;;;;;;;-142.75;100.00;78700.75;4990350;28;20034;-68
2021/11/16 07:54:24;;;;;;;72.87;29.13;;;;;;;-142.75;100.00;78708.63;5008578;28;20495;-69
2021/11/16 07:56:50;;;;;;;71.33;29.20;;;;;;;-142.75;100.00;78708.63;5004336;28;20034;-68
2021/11/16 07:59:18;;;;;;;;;;;;;;;-142.75;100.00;78708.63;5024494;28;20025;-69
2021/11/16 08:01:57;;;;;;;71.10;28.33;;;;;;;-142.75;100.00;78704.69;5023938;28;19920;-68
2021/11/16 08:07:12;;;;;;;73.77;29.83;;;;;;;-142.75;100.00;78696.81;5025192;28;20141;-69
2021/11/16 08:14:44;;;;;;;64.43;28.40;;;;;;;-142.75;100.00;78714.53;5022533;28;20033;-70
2021/11/16 08:17:10;;;;;;;71.50;28.83;;;;;;;-142.75;100.00;78712.56;5014706;28;20029;-69
2021/11/16 08:19:40;;;;;;;70.25;28.60;;;;;;;-142.75;100.00;78694.84;5004867;28;20026;-69
2021/11/16 08:22:11;;;;;;;70.70;28.67;;;;;;;-142.75;100.00;78696.81;5013795;28;20022;-69
2021/11/16 08:24:43;;;;;;;71.57;29.40;;;;;;;-142.75;100.00;78694.84;5014031;28;20044;-69
2021/11/16 08:27:14;;;;;;;69.67;29.07;;;;;;;-142.75;100.00;78696.81;5031486;28;20875;-69
2021/11/16 08:29:46;;;;;;;67.43;28.30;;;;;;;-142.75;100.00;78704.69;5020768;28;20036;-68
2021/11/16 08:32:19;;;;;;;72.70;27.70;;;;;;;-142.75;100.00;78700.75;5011668;28;20152;-69
2021/11/16 08:34:47;;;;;;;73.33;28.73;;;;;;;-142.75;100.00;78683.03;5011720;28;20483;-68
2021/11/16 08:37:15;;;;;;;72.10;29.30;;;;;;;-142.75;100.00;78688.94;5011726;28;20164;-69
2021/11/16 08:39:47;;;;;;;70.00;27.77;;;;;;;-142.75;100.00;78706.66;5008165;28;20025;-69
2021/11/16 08:42:28;;;;;;;65.80;27.93;;;;;;;-142.75;100.00;78686.97;5010608;28;20033;-69
2021/11/16 08:45:05;;;;;;;69.27;27.50;;;;;;;-142.75;100.00;78704.69;4994151;28;20025;-69
2021/11/16 08:47:32;;;;;;;;;;;;;;;-142.75;100.00;78700.75;5023587;28;20017;-69
2021/11/16 08:49:58;;;;;;;68.78;28.08;;;;;;;-142.75;100.00;78681.06;5023590;28;19968;-69
2021/11/16 08:52:27;;;;;;;68.13;27.63;;;;;;;-142.75;100.00;78671.22;4992987;28;20037;-69
2021/11/16 08:55:03;;;;;;;71.60;28.93;;;;;;;-142.75;100.00;78692.88;5010132;28;20034;-69
2021/11/16 08:57:30;;;;;;;74.87;30.17;;;;;;;-142.75;100.00;78692.88;5018409;28;20029;-69
2021/11/16 08:59:57;;;;;;;71.37;28.93;;;;;;;-142.75;100.00;78700.75;5004155;28;20284;-69
2021/11/16 09:02:25;;;;;;;73.97;29.40;;;;;;;-142.75;100.00;78698.78;5016992;28;20040;-70
2021/11/16 09:04:51;;;;;;;74.97;30.97;;;;;;;-142.75;100.00;78708.63;5010065;28;20026;-69
2021/11/16 09:07:25;;;;;;;66.72;29.63;;;;;;;-142.75;100.00;78728.31;5011286;28;20422;-70
2021/11/16 09:09:51;;;;;;;71.30;30.43;;;;;;;-142.75;100.00;78736.19;5006008;28;20030;-69
2021/11/16 09:12:17;;;;;;;70.40;29.53;;;;;;;-142.75;100.00;78732.25;5010708;28;20030;-70
2021/11/16 09:14:52;;;;;;;76.55;30.63;;;;;;;-142.75;100.00;78744.09;5009872;28;20022;-70
2021/11/16 09:17:18;;;;;;;70.87;29.60;;;;;;;-142.75;100.00;78748.03;4993986;28;20024;-70
2021/11/16 09:19:43;;;;;;;67.35;29.02;;;;;;;-142.75;100.00;78738.16;5011370;28;20112;-70
2021/11/16 09:22:18;;;;;;;67.10;27.50;;;;;;;-142.75;100.00;78736.19;5013921;28;20033;-70
2021/11/16 09:24:45;;;;;;;63.87;26.20;;;;;;;-142.75;100.00;78736.19;5009725;28;20025;-70
2021/11/16 09:27:22;;;;;;;66.53;26.70;;;;;;;-142.75;100.00;78728.31;4992339;28;20488;-70
2021/11/16 09:29:49;;;;;;;71.10;27.47;;;;;;;-142.75;100.00;78734.22;5028722;28;20021;-70
2021/11/16 09:32:15;;;;;;;68.20;29.60;;;;;;;-142.75;100.00;78748.03;5011217;28;20029;-71
2021/11/16 09:34:44;;;;;;;72.45;28.45;;;;;;;-142.75;100.00;78763.78;5029287;28;20044;-70
2021/11/16 09:37:16;;;;;;;76.43;28.17;;;;;;;-142.75;100.00;78753.94;5029720;28;20108;-69
2021/11/16 09:39:52;;;;;;;66.27;26.80;;;;;;;-142.75;100.00;78746.03;5011080;28;20361;-69
2021/11/16 09:42:24;;;;;;;71.63;27.67;;;;;;;-142.75;100.00;78751.97;5027684;28;20502;-70
2021/11/16 09:44:53;;;;;;;63.37;26.80;;;;;;;-142.75;100.00;78748.03;5028756;28;20026;-67
2021/11/16 09:47:26;;;;;;;70.10;27.50;;;;;;;-142.75;100.00;78748.03;5029140;28;20399;-67
2021/11/16 09:49:51;;;;;;;73.90;28.33;;;;;;;-142.75;100.00;78740.13;5010563;28;20048;-68
2021/11/16 09:52:22;;;;;;;69.70;27.20;;;;;;;-142.75;100.00;78712.56;5029295;28;20029;-68
2021/11/16 09:54:53;;;;;;;69.50;27.87;;;;;;;-142.75;100.00;78696.81;5029177;28;20048;-67
2021/11/16 09:57:41;;;;;;;70.27;26.77;;;;;;;-142.75;100.00;78679.09;5027693;28;20039;-70
2021/11/16 10:00:15;;;;;;;75.50;28.40;;;;;;;-142.75;100.00;78702.72;5010378;28;20024;-70
2021/11/16 10:03:01;;;;;;;74.40;28.70;;;;;;;-142.75;100.00;78700.75;5010882;28;20033;-70
2021/11/16 10:05:28;;;;;;;71.43;28.48;;;;;;;-142.75;100.00;78704.69;5010761;28;20159;-70
2021/11/16 10:07:55;;;;;;;68.90;27.03;;;;;;;-142.75;100.00;78716.50;5029274;28;20450;-70
2021/11/16 10:10:24;;;;;;;77.20;31.03;;;;;;;-142.75;100.00;78724.38;5027340;28;20487;-70
2021/11/16 10:12:55;;;;;;;68.27;27.57;;;;;;;-142.75;100.00;78724.38;5028314;28;20387;-70
2021/11/16 10:15:23;;;;;;;69.70;28.37;;;;;;;-142.75;100.00;78726.34;5010940;28;20030;-71
2021/11/16 10:17:51;;;;;;;74.03;29.40;;;;;;;-142.75;100.00;78718.47;5010588;28;20026;-69
2021/11/16 10:20:22;;;;;;;73.70;29.83;;;;;;;-142.75;100.00;78732.25;5026823;28;20475;-70
2021/11/16 10:22:50;;;;;;;70.93;30.17;;;;;;;-142.75;100.00;78744.09;5010793;28;20112;-70
2021/11/16 10:25:20;;;;;;;73.40;29.03;;;;;;;-142.75;100.00;78728.31;5028457;28;20063;-70
2021/11/16 10:27:47;;;;;;;71.67;28.53;;;;;;;-142.75;100.00;78728.31;5010754;28;20074;-70
2021/11/16 10:30:16;;;;;;;75.47;30.07;;;;;;;-142.75;100.00;78726.34;5026285;28;20586;-70
2021/11/16 10:32:44;;;;;;;77.07;29.83;;;;;;;-142.75;100.00;78736.19;5027092;28;20057;-70
2021/11/16 10:35:16;;;;;;;81.47;29.67;;;;;;;-142.75;100.00;78732.25;5027269;28;20049;-70
2021/11/16 10:37:52;;;;;;;82.73;30.83;;;;;;;-142.75;100.00;78732.25;5028738;28;20395;-69
2021/11/16 10:40:20;;;;;;;74.88;29.40;;;;;;;-142.75;100.00;78728.31;5027793;28;20021;-69
2021/11/16 10:42:50;;;;;;;80.53;32.03;;;;;;;-142.75;100.00;78744.09;5028441;28;20044;-69
2021/11/16 10:45:17;;;;;;;77.57;29.97;;;;;;;-142.75;100.00;78742.09;5010432;28;20129;-69
2021/11/16 10:47:46;;;;;;;80.73;30.17;;;;;;;-142.75;100.00;78744.09;5027668;28;20529;-69
2021/11/16 10:50:15;;;;;;;78.03;31.00;;;;;;;-142.75;100.00;78738.16;5027143;28;20025;-70
2021/11/16 10:52:41;;;;;;;78.93;30.83;;;;;;;-142.75;100.00;78742.09;5027656;28;20033;-69
2021/11/16 10:55:08;;;;;;;73.07;27.60;;;;;;;-142.75;100.00;78728.31;5027677;28;20037;-70
2021/11/16 10:57:54;;;;;;;70.17;27.37;;;;;;;-142.75;100.00;78740.13;5001284;28;20557;-69
2021/11/16 11:00:31;;;;;;;70.83;25.63;;;;;;;-142.75;100.00;78722.41;5024040;28;20442;-68
2021/11/16 11:03:19;;;;;;;67.60;27.00;;;;;;;-142.75;100.00;78724.38;5009804;28;20039;-70
2021/11/16 11:06:12;;;;;;;71.67;27.93;;;;;;;-142.75;100.00;78712.56;5027902;28;20029;-71
2021/11/16 11:08:48;;;;;;;56.67;23.30;;;;;;;-142.75;100.00;78708.63;5020689;28;20049;-70
2021/11/16 11:11:16;;;;;;;57.13;23.85;;;;;;;-142.75;100.00;78688.94;5007290;28;20037;-70
2021/11/16 11:13:48;;;;;;;65.83;24.43;;;;;;;-142.75;100.00;78675.16;5006408;28;20036;-70
2021/11/16 11:16:15;;;;;;;58.37;24.03;;;;;;;-142.75;100.00;78649.53;5014417;28;20035;-71
2021/11/16 11:18:44;;;;;;;64.37;25.73;;;;;;;-142.75;100.00;78655.44;5008334;28;20475;-71